Terminal Aerodrome Forecast
Issued by NWS

Home | Current Version | Previous Version | Text Only | Print | Product List | Glossary On
Versions: 1 2 3 4 5 6 7 8 9 10 11 12 13 14 15 16 17 18 19 20 21 22 23 24
174
FTUS41 KCAR 191949 AAE
TAFHUL
TAF AMD
KHUL 191949Z 1920/2018 31005KT 3SM -SHSN OVC008
     FM192300 34006KT P6SM BKN030
     FM200500 33007KT P6SM BKN035
     FM201100 34010KT P6SM SCT120
     FM201300 34011G19KT P6SM -SHSN BKN015=

USA.gov is the U.S. government's official web portal to all federal, state and local government web resources and services.